createdAt,value
2022-12-23T00:01:26.622Z,97023.47
2022-12-23T00:03:57.598Z,97026.17
2022-12-23T00:06:26.020Z,97023.17
2022-12-23T00:08:58.648Z,97021.79
2022-12-23T00:11:28.382Z,97023.46
2022-12-23T00:14:21.037Z,97028.02
2022-12-23T00:16:50.745Z,97028.63
2022-12-23T00:19:19.145Z,97032.73
2022-12-23T00:21:48.701Z,97035.76
2022-12-23T00:24:16.799Z,97032.95
2022-12-23T00:26:44.920Z,97031.07
2022-12-23T00:29:12.997Z,97034.16
2022-12-23T00:31:41.052Z,97041.59
2022-12-23T00:34:10.860Z,97039.55
2022-12-23T00:36:38.966Z,97040.62
2022-12-23T00:39:27.293Z,97048.21
2022-12-23T00:42:13.885Z,97043.48
2022-12-23T00:44:42.208Z,97044.66
2022-12-23T00:47:30.094Z,97048.19
2022-12-23T00:49:58.061Z,97047.07
2022-12-23T00:52:26.173Z,97051.14
2022-12-23T00:54:54.142Z,97054.86
2022-12-23T00:57:22.073Z,97059.95
2022-12-23T00:59:49.995Z,97056.60
2022-12-23T01:02:36.572Z,97055.58
2022-12-23T01:05:23.959Z,97057.19
2022-12-23T01:08:41.989Z,97061.77
2022-12-23T01:11:11.305Z,97062.25
2022-12-23T01:13:39.328Z,97063.29
2022-12-23T01:16:15.044Z,97064.58
2022-12-23T01:18:45.750Z,97055.03
2022-12-23T01:21:13.794Z,97046.89
2022-12-23T01:23:41.994Z,97048.21
2022-12-23T01:26:11.696Z,97046.58
2022-12-23T01:28:39.672Z,97047.50
2022-12-23T01:31:10.247Z,97050.96
2022-12-23T01:33:38.197Z,97049.09
2022-12-23T01:36:07.908Z,97049.20
2022-12-23T01:38:35.865Z,97052.04
2022-12-23T01:41:03.969Z,97052.41
2022-12-23T01:43:49.741Z,97047.66
2022-12-23T01:46:18.094Z,97042.92
2022-12-23T01:48:51.841Z,97041.58
2022-12-23T01:51:30.042Z,97042.13
2022-12-23T01:54:01.697Z,97042.86
2022-12-23T01:56:38.190Z,97042.60
2022-12-23T01:59:11.458Z,97044.64
2022-12-23T02:01:58.118Z,97045.83
2022-12-23T02:04:26.235Z,97054.98
2022-12-23T02:07:12.692Z,97056.09
2022-12-23T02:09:41.055Z,97056.10
2022-12-23T02:12:44.014Z,97055.23
2022-12-23T02:15:42.519Z,97055.27
2022-12-23T02:18:19.536Z,97053.56
2022-12-23T02:21:08.883Z,97057.98
2022-12-23T02:24:10.785Z,97063.04
2022-12-23T02:27:05.493Z,97062.56
2022-12-23T02:29:42.664Z,97067.20
2022-12-23T02:32:24.132Z,97070.13
2022-12-23T02:35:03.119Z,97073.73
2022-12-23T02:37:43.258Z,97080.45
2022-12-23T02:40:43.130Z,97080.20
2022-12-23T02:43:39.011Z,97083.66
2022-12-23T02:46:20.948Z,97080.40
2022-12-23T02:49:01.196Z,97075.96
2022-12-23T02:51:34.700Z,97077.98
2022-12-23T02:54:06.077Z,97072.17
2022-12-23T02:56:38.309Z,97068.34
2022-12-23T02:59:20.518Z,97067.91
2022-12-23T03:01:50.782Z,97067.54
2022-12-23T03:04:18.925Z,97068.06
2022-12-23T03:06:51.648Z,97068.60
2022-12-23T03:09:35.113Z,97066.27
2022-12-23T03:12:10.895Z,97067.17
2022-12-23T03:15:20.457Z,97069.20
2022-12-23T03:18:07.055Z,97067.17
2022-12-23T03:20:59.559Z,97065.73
2022-12-23T03:23:32.630Z,97065.08
2022-12-23T03:26:19.025Z,97061.35
2022-12-23T03:28:55.943Z,97063.70
2022-12-23T03:31:27.231Z,97061.20
2022-12-23T03:34:02.302Z,97059.33
2022-12-23T03:36:38.374Z,97054.42
2022-12-23T03:39:11.177Z,97059.98
2022-12-23T03:41:43.117Z,97062.15
2022-12-23T03:44:18.302Z,97060.41
2022-12-23T03:46:55.556Z,97059.08
2022-12-23T03:49:32.163Z,97057.77
2022-12-23T03:52:06.304Z,97063.22
2022-12-23T03:54:41.075Z,97065.59
2022-12-23T03:57:11.817Z,97061.17
2022-12-23T03:59:44.111Z,97063.40
2022-12-23T04:02:39.481Z,97064.41
2022-12-23T04:05:21.025Z,97064.64
2022-12-23T04:08:05.185Z,97062.41
2022-12-23T04:10:33.943Z,97064.39
2022-12-23T04:13:02.224Z,97062.77
2022-12-23T04:15:30.533Z,97066.81
2022-12-23T04:17:58.896Z,97060.80
2022-12-23T04:20:26.875Z,97057.83
2022-12-23T04:22:54.856Z,97054.15
2022-12-23T04:25:22.811Z,97052.98
2022-12-23T04:27:50.873Z,97051.51
2022-12-23T04:30:18.932Z,97053.74
2022-12-23T04:32:46.764Z,97061.31
2022-12-23T04:35:14.742Z,97061.79
2022-12-23T04:37:42.694Z,97055.54
2022-12-23T04:40:10.742Z,97057.63
2022-12-23T04:42:38.571Z,97050.55
2022-12-23T04:45:06.905Z,97042.96
2022-12-23T04:47:35.589Z,97034.83
2022-12-23T04:50:04.686Z,97030.41
2022-12-23T04:52:32.738Z,97029.12
2022-12-23T04:55:00.693Z,97029.62
2022-12-23T04:57:28.573Z,97022.41
2022-12-23T04:59:56.482Z,97019.41
2022-12-23T05:02:24.507Z,97014.45
2022-12-23T05:04:52.440Z,97012.51
2022-12-23T05:07:20.387Z,97010.50
2022-12-23T05:09:48.297Z,97010.72
2022-12-23T05:12:17.363Z,97016.99
2022-12-23T05:14:45.329Z,97021.05
2022-12-23T05:17:13.229Z,97018.82
2022-12-23T05:19:41.242Z,97023.12
2022-12-23T05:22:09.149Z,97021.16
2022-12-23T05:24:37.076Z,97026.95
2022-12-23T05:27:05.247Z,97030.45
2022-12-23T05:29:33.110Z,97030.84
2022-12-23T05:32:01.098Z,97028.91
2022-12-23T05:34:29.005Z,97028.79
2022-12-23T05:36:56.950Z,97024.73
2022-12-23T05:39:24.842Z,97023.80
2022-12-23T05:41:52.807Z,97022.41
2022-12-23T05:44:20.760Z,97018.65
2022-12-23T05:46:48.654Z,97020.69
2022-12-23T05:49:16.571Z,97019.86
2022-12-23T05:51:44.489Z,97021.29
2022-12-23T05:54:12.463Z,97019.95
2022-12-23T05:56:40.781Z,97015.21
2022-12-23T05:59:09.318Z,97020.07
2022-12-23T06:01:37.340Z,97022.50
2022-12-23T06:04:05.589Z,97025.09
2022-12-23T06:06:33.674Z,97025.32
2022-12-23T06:09:01.674Z,97028.48
2022-12-23T06:11:29.616Z,97022.77
2022-12-23T06:13:57.603Z,97024.88
2022-12-23T06:16:25.640Z,97026.63
2022-12-23T06:18:56.627Z,97030.22
2022-12-23T06:21:25.640Z,97030.85
2022-12-23T06:23:53.505Z,97037.60
2022-12-23T06:26:21.507Z,97041.90
2022-12-23T06:28:49.957Z,97037.93
2022-12-23T06:31:18.572Z,97038.06
2022-12-23T06:33:47.316Z,97039.56
2022-12-23T06:36:15.521Z,97035.45
2022-12-23T06:38:44.044Z,97033.06
2022-12-23T06:41:12.545Z,97030.55
2022-12-23T06:43:40.687Z,97029.66
2022-12-23T06:46:08.633Z,97030.64
2022-12-23T06:48:36.716Z,97035.02
2022-12-23T06:51:04.850Z,97039.20
2022-12-23T06:53:32.806Z,97039.33
2022-12-23T06:56:02.160Z,97036.11
2022-12-23T06:58:30.454Z,97034.89
2022-12-23T07:00:58.554Z,97032.71
2022-12-23T07:03:26.556Z,97033.42
2022-12-23T07:05:54.592Z,97033.48
2022-12-23T07:08:22.583Z,97030.56
2022-12-23T07:10:50.476Z,97032.73
2022-12-23T07:13:18.421Z,97034.98
2022-12-23T07:15:46.319Z,97032.42
2022-12-23T07:18:14.336Z,97032.63
2022-12-23T07:20:42.543Z,97032.20
2022-12-23T07:23:10.556Z,97028.38
2022-12-23T07:25:38.545Z,97032.16
2022-12-23T07:28:06.663Z,97025.67
2022-12-23T07:30:34.677Z,97018.37
2022-12-23T07:33:02.788Z,97019.00
2022-12-23T07:35:30.821Z,97016.66
2022-12-23T07:37:58.753Z,97021.17
2022-12-23T07:40:27.297Z,97022.87
2022-12-23T07:42:58.001Z,97019.95
2022-12-23T07:45:27.637Z,97017.89
2022-12-23T07:48:08.764Z,97020.14
2022-12-23T07:50:39.366Z,97019.63
2022-12-23T07:53:07.313Z,97023.88
2022-12-23T07:55:35.296Z,97022.94
2022-12-23T07:58:03.404Z,97024.34
2022-12-23T08:00:31.320Z,97028.52
2022-12-23T08:02:59.314Z,97029.82
2022-12-23T08:05:27.671Z,97028.31
2022-12-23T08:07:55.649Z,97031.80
2022-12-23T08:10:23.598Z,97030.09
2022-12-23T08:12:51.444Z,97031.35
2022-12-23T08:15:19.453Z,97033.73
2022-12-23T08:17:47.467Z,97032.76
2022-12-23T08:20:15.608Z,97034.84
2022-12-23T08:22:43.640Z,97031.56
2022-12-23T08:25:11.655Z,97033.02
2022-12-23T08:27:39.775Z,97027.52
2022-12-23T08:30:08.395Z,97027.39
2022-12-23T08:32:36.415Z,97026.67
2022-12-23T08:35:04.647Z,97023.55
2022-12-23T08:37:32.663Z,97017.98
2022-12-23T08:40:00.619Z,97020.27
2022-12-23T08:42:28.680Z,97023.48
2022-12-23T08:44:56.700Z,97019.29
2022-12-23T08:47:24.677Z,97014.48
2022-12-23T08:49:52.624Z,97009.32
2022-12-23T08:52:20.569Z,97008.02
2022-12-23T08:54:48.507Z,97003.66
2022-12-23T08:57:16.589Z,97000.97
2022-12-23T08:59:44.581Z,96997.40
2022-12-23T09:02:12.981Z,96994.09
2022-12-23T09:04:41.448Z,96989.77
2022-12-23T09:07:09.750Z,96990.41
2022-12-23T09:09:38.249Z,96987.92
2022-12-23T09:12:06.497Z,96984.50
2022-12-23T09:14:34.631Z,96984.40
2022-12-23T09:17:02.649Z,96984.35
2022-12-23T09:19:30.650Z,96980.59
2022-12-23T09:21:58.629Z,96977.98
2022-12-23T09:24:26.630Z,96979.38
2022-12-23T09:26:54.558Z,96975.84
2022-12-23T09:29:22.668Z,96974.52
2022-12-23T09:31:50.694Z,96965.80
2022-12-23T09:34:18.719Z,96965.34
2022-12-23T09:36:51.859Z,96952.56
2022-12-23T09:39:23.340Z,96947.91
2022-12-23T09:42:25.203Z,96944.11
2022-12-23T09:45:17.022Z,96933.70
2022-12-23T09:47:45.397Z,96927.23
2022-12-23T09:50:27.786Z,96923.98
2022-12-23T09:53:07.420Z,96927.47
2022-12-23T09:55:54.260Z,96925.48
2022-12-23T09:58:50.143Z,96927.16
2022-12-23T10:01:21.064Z,96920.67
2022-12-23T10:04:10.445Z,96920.05
2022-12-23T10:06:39.955Z,96919.69
2022-12-23T10:09:10.373Z,96919.98
2022-12-23T10:11:42.826Z,96916.77
2022-12-23T10:14:18.872Z,96918.94
2022-12-23T10:16:51.398Z,96920.89
2022-12-23T10:19:42.120Z,96921.27
2022-12-23T10:22:24.917Z,96921.24
2022-12-23T10:24:55.592Z,96916.98
2022-12-23T10:27:38.811Z,96910.03
2022-12-23T10:30:51.470Z,96905.02
2022-12-23T10:33:09.123Z,96905.27
2022-12-23T10:35:37.119Z,96908.57
2022-12-23T10:38:15.022Z,96907.95
2022-12-23T10:41:09.583Z,96906.71
2022-12-23T10:44:11.890Z,96903.58
2022-12-23T10:46:52.176Z,96901.64
2022-12-23T10:49:42.413Z,96898.55
2022-12-23T10:52:28.774Z,96895.77
2022-12-23T10:54:56.834Z,96900.69
2022-12-23T10:57:26.063Z,96896.45
2022-12-23T10:59:53.972Z,96899.30
2022-12-23T11:02:33.843Z,96903.33
2022-12-23T11:05:02.017Z,96901.71
2022-12-23T11:07:46.695Z,96903.00
2022-12-23T11:10:20.829Z,96894.56
2022-12-23T11:12:52.320Z,96897.40
2022-12-23T11:15:37.862Z,96892.35
2022-12-23T11:18:11.657Z,96893.65
2022-12-23T11:20:45.112Z,96895.56
2022-12-23T11:23:28.222Z,96898.11
2022-12-23T11:26:06.357Z,96904.17
2022-12-23T11:28:49.774Z,96906.15
2022-12-23T11:31:27.220Z,96906.09
2022-12-23T11:34:05.811Z,96903.21
2022-12-23T11:36:34.490Z,96902.73
2022-12-23T11:39:18.014Z,96903.48
2022-12-23T11:41:49.187Z,96903.41
2022-12-23T11:44:17.139Z,96905.69
2022-12-23T11:46:45.194Z,96910.73
2022-12-23T11:49:25.561Z,96910.04
2022-12-23T11:52:00.341Z,96911.14
2022-12-23T11:54:29.148Z,96909.36
2022-12-23T11:56:57.746Z,96907.40
2022-12-23T11:59:33.458Z,96905.99
2022-12-23T12:02:11.653Z,96904.20
2022-12-23T12:04:43.539Z,96904.54
2022-12-23T12:07:14.868Z,96901.67
2022-12-23T12:09:45.943Z,96899.33
2022-12-23T12:12:19.411Z,96895.61
2022-12-23T12:14:59.768Z,96897.17
2022-12-23T12:17:32.794Z,96896.66
2022-12-23T12:20:13.498Z,96896.04
2022-12-23T12:22:49.448Z,96894.54
2022-12-23T12:25:59.454Z,96896.23
2022-12-23T12:29:07.193Z,96893.94
2022-12-23T12:31:43.989Z,96892.67
2022-12-23T12:34:31.723Z,96892.88
2022-12-23T12:37:11.029Z,96891.17
2022-12-23T12:39:49.717Z,96891.52
2022-12-23T12:42:31.063Z,96893.88
2022-12-23T12:45:27.340Z,96896.67
2022-12-23T12:48:18.937Z,96900.30
2022-12-23T12:50:59.822Z,96899.08
2022-12-23T12:53:30.323Z,96902.05
2022-12-23T12:56:15.254Z,96904.91
2022-12-23T12:58:45.151Z,96907.51
2022-12-23T13:01:22.194Z,96907.78
2022-12-23T13:04:23.526Z,96907.55
2022-12-23T13:07:06.253Z,96908.89
2022-12-23T13:09:54.811Z,96910.53
2022-12-23T13:12:35.600Z,96909.60
2022-12-23T13:15:11.936Z,96919.95
2022-12-23T13:18:03.438Z,96920.23
2022-12-23T13:20:40.557Z,96921.63
2022-12-23T13:23:43.016Z,96923.73
2022-12-23T13:26:21.777Z,96920.61
2022-12-23T13:28:52.671Z,96927.04
2022-12-23T13:31:49.941Z,96931.43
2022-12-23T13:34:33.436Z,96935.88
2022-12-23T13:37:28.397Z,96931.55
2022-12-23T13:40:11.714Z,96933.71
2022-12-23T13:42:46.108Z,96936.02
2022-12-23T13:45:17.636Z,96939.19
2022-12-23T13:48:11.507Z,96942.21
2022-12-23T13:51:00.639Z,96942.97
2022-12-23T13:54:03.924Z,96940.20
2022-12-23T13:56:43.573Z,96947.11
2022-12-23T13:59:13.428Z,96946.98
2022-12-23T14:01:41.389Z,96948.79
2022-12-23T14:04:31.592Z,96946.02
2022-12-23T14:07:20.640Z,96949.06
2022-12-23T14:09:56.248Z,96951.43
2022-12-23T14:12:28.719Z,96954.27
2022-12-23T14:15:21.609Z,96952.95
2022-12-23T14:18:18.193Z,96957.92
2022-12-23T14:20:51.572Z,96957.75
2022-12-23T14:23:41.411Z,96960.67
2022-12-23T14:27:00.441Z,96961.47
2022-12-23T14:29:47.196Z,96958.92
2022-12-23T14:32:26.318Z,96966.09
2022-12-23T14:35:14.962Z,96964.35
2022-12-23T14:37:43.672Z,96969.04
2022-12-23T14:40:50.477Z,96974.02
2022-12-23T14:43:46.298Z,96971.36
2022-12-23T14:46:46.969Z,96969.08
2022-12-23T14:49:44.107Z,96968.59
2022-12-23T14:52:39.203Z,96978.39
2022-12-23T14:55:32.674Z,96981.86
2022-12-23T14:58:13.323Z,96980.80
2022-12-23T15:00:51.547Z,96984.19
2022-12-23T15:03:20.597Z,96985.77
2022-12-23T15:05:51.077Z,96985.44
2022-12-23T15:08:41.355Z,96984.43
2022-12-23T15:11:18.587Z,96977.60
2022-12-23T15:13:46.659Z,96975.40
2022-12-23T15:16:18.003Z,96977.21
2022-12-23T15:18:56.129Z,96984.81
2022-12-23T15:21:36.924Z,96978.98
2022-12-23T15:24:05.118Z,96982.46
2022-12-23T15:26:33.288Z,96983.36
2022-12-23T15:29:01.447Z,96981.61
2022-12-23T15:31:38.751Z,96980.38
2022-12-23T15:34:16.754Z,96981.55
2022-12-23T15:36:45.907Z,96983.33
2022-12-23T15:39:23.786Z,96987.14
2022-12-23T15:41:51.887Z,96985.84
2022-12-23T15:44:23.714Z,96981.88
2022-12-23T15:46:53.077Z,96982.74
2022-12-23T15:49:22.031Z,96985.10
2022-12-23T15:52:18.106Z,96988.15
2022-12-23T15:54:53.966Z,96982.88
2022-12-23T15:57:26.475Z,96983.23
2022-12-23T15:59:55.212Z,96986.55
2022-12-23T16:05:31.292Z,96978.29
2022-12-23T16:08:23.023Z,96978.35
2022-12-23T16:11:15.100Z,96985.31
2022-12-23T16:14:21.418Z,96985.36
2022-12-23T16:16:52.093Z,96986.42
2022-12-23T16:19:52.770Z,96987.19
2022-12-23T16:22:20.742Z,96986.09
2022-12-23T16:25:15.281Z,96996.66
2022-12-23T16:27:59.361Z,96992.41
2022-12-23T16:30:49.763Z,96979.21
2022-12-23T16:33:41.837Z,96969.17
2022-12-23T16:36:25.600Z,96962.40
2022-12-23T16:39:23.454Z,96971.27
2022-12-23T16:41:58.445Z,96968.41
2022-12-23T16:45:00.189Z,96968.85
2022-12-23T16:47:47.368Z,96963.95
2022-12-23T16:50:22.516Z,96965.42
2022-12-23T16:52:50.776Z,96966.16
2022-12-23T16:55:25.874Z,96964.70
2022-12-23T16:58:00.906Z,96962.92
2022-12-23T17:00:38.412Z,96961.09
2022-12-23T17:03:18.445Z,96948.41
2022-12-23T17:05:51.972Z,96953.82
2022-12-23T17:08:28.791Z,96957.95
2022-12-23T17:11:04.907Z,96960.31
2022-12-23T17:13:38.602Z,96960.78
2022-12-23T17:16:25.675Z,96962.77
2022-12-23T17:19:01.878Z,96957.93
2022-12-23T17:21:58.662Z,96945.48
2022-12-23T17:24:27.257Z,96951.81
2022-12-23T17:26:57.370Z,96955.37
2022-12-23T17:29:25.566Z,96960.88
2022-12-23T17:31:54.114Z,96963.60
2022-12-23T17:35:23.873Z,96964.51
2022-12-23T17:37:58.396Z,96961.19
2022-12-23T17:40:46.935Z,96966.71
2022-12-23T17:43:25.349Z,96969.61
2022-12-23T17:46:00.569Z,96968.67
2022-12-23T17:48:31.820Z,96971.20
2022-12-23T17:51:00.503Z,96972.08
2022-12-23T17:53:28.650Z,96977.48
2022-12-23T17:55:57.005Z,96981.83
2022-12-23T17:58:25.032Z,96982.34
2022-12-23T18:00:53.071Z,96983.33
2022-12-23T18:03:23.681Z,96988.63
2022-12-23T18:06:00.889Z,96985.64
2022-12-23T18:08:29.928Z,96987.97
2022-12-23T18:10:58.341Z,96983.74
2022-12-23T18:13:26.397Z,96982.91
2022-12-23T18:15:54.419Z,96985.78
2022-12-23T18:18:37.734Z,96979.09
2022-12-23T18:21:17.465Z,96984.49
2022-12-23T18:23:45.915Z,96993.70
2022-12-23T18:26:18.030Z,96990.80
2022-12-23T18:28:46.110Z,96994.34
2022-12-23T18:31:17.421Z,96993.27
2022-12-23T18:33:54.285Z,96995.13
2022-12-23T18:36:55.310Z,96992.56
2022-12-23T18:39:33.391Z,96996.82
2022-12-23T18:42:06.998Z,96999.20
2022-12-23T18:44:57.189Z,96997.50
2022-12-23T18:47:32.149Z,97002.34
2022-12-23T18:50:08.175Z,96998.54
2022-12-23T18:52:46.568Z,97000.25
2022-12-23T18:55:34.623Z,96995.93
2022-12-23T18:58:23.244Z,97000.50
2022-12-23T19:00:59.793Z,96997.41
2022-12-23T19:03:35.224Z,96997.52
2022-12-23T19:06:14.220Z,96998.07
2022-12-23T19:08:51.573Z,96998.70
2022-12-23T19:11:20.893Z,96993.27
2022-12-23T19:13:48.890Z,96993.56
2022-12-23T19:16:20.185Z,96994.40
2022-12-23T19:18:56.396Z,96992.98
2022-12-23T19:21:43.724Z,96995.45
2022-12-23T19:24:21.294Z,96996.77
2022-12-23T19:26:57.890Z,96993.91
2022-12-23T19:29:34.070Z,96993.77
2022-12-23T19:32:09.757Z,96990.55
2022-12-23T19:34:44.789Z,96994.70
2022-12-23T19:37:12.999Z,96993.42
2022-12-23T19:39:42.090Z,96994.89
2022-12-23T19:42:10.172Z,96990.35
2022-12-23T19:44:38.531Z,96995.20
2022-12-23T19:47:10.959Z,96994.17
2022-12-23T19:49:38.938Z,96993.48
2022-12-23T19:52:09.336Z,96989.38
2022-12-23T19:54:38.951Z,96988.73
2022-12-23T19:57:10.429Z,96993.20
2022-12-23T19:59:39.187Z,96992.69
2022-12-23T20:02:07.342Z,96995.72
2022-12-23T20:04:35.368Z,96991.41
2022-12-23T20:07:03.373Z,96993.89
2022-12-23T20:09:31.357Z,96996.52
2022-12-23T20:11:59.269Z,97001.70
2022-12-23T20:14:32.007Z,97000.09
2022-12-23T20:17:02.061Z,96996.60
2022-12-23T20:19:30.017Z,96992.90
2022-12-23T20:21:57.988Z,96991.52
2022-12-23T20:24:26.281Z,96984.59
2022-12-23T20:26:54.274Z,96980.31
2022-12-23T20:29:22.226Z,96975.94
2022-12-23T20:31:50.268Z,96967.23
2022-12-23T20:34:18.398Z,96958.14
2022-12-23T20:36:46.670Z,96958.56
2022-12-23T20:39:14.718Z,96943.42
2022-12-23T20:41:42.651Z,96941.48
2022-12-23T20:46:58.802Z,96951.02
2022-12-23T20:49:26.975Z,96943.04
2022-12-23T20:51:54.889Z,96945.88
2022-12-23T20:54:29.701Z,96941.07
2022-12-23T20:57:02.110Z,96930.09
2022-12-23T20:59:30.138Z,96922.06
2022-12-23T21:01:59.504Z,96925.14
2022-12-23T21:04:27.903Z,96928.53
2022-12-23T21:06:56.112Z,96923.70
2022-12-23T21:09:24.160Z,96922.92
2022-12-23T21:11:52.358Z,96919.42
2022-12-23T21:14:20.540Z,96929.65
2022-12-23T21:20:45.352Z,96922.65
2022-12-23T21:23:21.971Z,96927.19
2022-12-23T21:26:28.096Z,96925.31
2022-12-23T21:29:00.479Z,96924.56
2022-12-23T21:31:30.506Z,96921.52
2022-12-23T21:33:59.161Z,96919.42
2022-12-23T21:36:31.306Z,96916.11
2022-12-23T21:39:38.497Z,96911.63
2022-12-23T21:42:27.535Z,96908.01
2022-12-23T21:44:55.662Z,96904.25
2022-12-23T21:47:29.695Z,96898.86
2022-12-23T21:50:17.493Z,96896.18
2022-12-23T21:52:45.426Z,96893.90
2022-12-23T21:55:16.187Z,96903.77
2022-12-23T21:57:44.691Z,96907.77
2022-12-23T22:00:12.971Z,96905.87
2022-12-23T22:02:41.059Z,96904.59
2022-12-23T22:05:09.245Z,96905.17
2022-12-23T22:07:37.236Z,96899.00
2022-12-23T22:10:05.693Z,96898.32
2022-12-23T22:12:33.706Z,96895.73
2022-12-23T22:15:05.038Z,96899.56
2022-12-23T22:17:37.532Z,96904.96
2022-12-23T22:20:06.547Z,96911.11
2022-12-23T22:22:58.469Z,96907.45
2022-12-23T22:25:34.099Z,96903.34
2022-12-23T22:28:02.474Z,96900.36
2022-12-23T22:30:30.597Z,96891.69
2022-12-23T22:32:58.674Z,96888.11
2022-12-23T22:35:28.012Z,96883.05
2022-12-23T22:37:56.048Z,96877.14
2022-12-23T22:40:24.090Z,96878.28
2022-12-23T22:42:52.017Z,96876.95
2022-12-23T22:45:19.974Z,96877.91
2022-12-23T22:47:47.915Z,96877.41
2022-12-23T22:54:23.828Z,96874.73
2022-12-23T22:56:51.720Z,96875.16
2022-12-23T22:59:22.961Z,96873.71
2022-12-23T23:01:52.148Z,96870.38
2022-12-23T23:04:20.192Z,96871.72
2022-12-23T23:11:33.210Z,96863.66
2022-12-23T23:14:01.255Z,96866.90
2022-12-23T23:16:29.702Z,96865.77
2022-12-23T23:18:59.131Z,96860.82
2022-12-23T23:21:27.447Z,96854.65
2022-12-23T23:24:02.526Z,96859.34
2022-12-23T23:26:37.882Z,96863.40
2022-12-23T23:29:05.881Z,96864.52
2022-12-23T23:31:43.186Z,96866.73
2022-12-23T23:34:13.064Z,96866.09
2022-12-23T23:36:41.236Z,96869.27
2022-12-23T23:39:14.924Z,96867.27
2022-12-23T23:41:43.230Z,96867.37
2022-12-23T23:44:12.238Z,96867.48
2022-12-23T23:46:40.391Z,96868.16
2022-12-23T23:49:09.370Z,96872.26
2022-12-23T23:51:58.736Z,96867.67
2022-12-23T23:54:33.924Z,96858.27
2022-12-23T23:57:01.875Z,96854.09
2022-12-23T23:59:37.858Z,96845.73
